Time;durP1;ratioP1;P1;durP2;ratioP2;P2;SDS_P1;SDS_P2;PMS_P1;PMS_P2;Temp;Humidity;BMP_temperature;BMP_pressure;BME280_temperature;BME280_humidity;BME280_pressure;Samples;Min_cycle;Max_cycle;Signal;HPM_P1;HPM_P2
2022/06/27 21:37:34;;;;;;;9.88;6.53;;;14.10;99.90;;;-144.05;85.99;125687.94;6235733;22;1432126;-89
2022/06/27 21:40:00;;;;;;;9.85;6.88;;;14.10;99.90;;;-144.05;85.78;125687.94;6195834;23;20039;-87
2022/06/27 21:42:26;;;;;;;10.25;7.43;;;14.00;99.90;;;-144.05;85.96;125687.94;6222501;23;20027;-89
2022/06/27 21:44:52;;;;;;;11.40;7.80;;;14.00;99.90;;;-144.05;85.97;125687.94;6196317;23;20004;-88
2022/06/27 21:47:18;;;;;;;9.88;8.05;;;14.00;99.90;;;-144.05;86.22;125687.94;6198633;23;20009;-88
2022/06/27 21:49:44;;;;;;;13.52;7.72;;;13.90;99.90;;;-144.05;86.25;125687.94;6198465;23;20043;-88
2022/06/27 21:54:56;;;;;;;11.70;7.90;;;13.80;99.90;;;-144.05;86.85;125687.94;6223075;23;20027;-86
2022/06/27 21:57:22;;;;;;;12.88;7.50;;;13.80;99.90;;;-144.05;87.04;125687.94;6194913;23;20058;-88
2022/06/27 21:59:48;;;;;;;9.00;7.32;;;13.70;99.90;;;-144.05;87.40;125687.94;6197731;23;20458;-90
2022/06/27 22:02:19;;;;;;;12.85;7.78;;;13.70;99.90;;;-144.05;87.77;125687.94;6193341;23;20015;-85
2022/06/27 22:04:45;;;;;;;12.05;7.32;;;13.70;99.90;;;-144.05;87.99;125687.94;6194035;23;20497;-85
2022/06/27 22:07:11;;;;;;;9.88;7.68;;;13.70;99.90;;;-144.05;88.30;125687.94;6193055;23;20011;-88
2022/06/27 22:09:36;;;;;;;14.90;8.40;;;13.70;99.90;;;-144.05;88.73;125687.94;6219367;23;20008;-88
2022/06/27 22:12:03;;;;;;;12.52;8.77;;;13.70;99.90;;;-144.05;88.79;125687.94;6192042;23;20035;-86
2022/06/27 22:14:29;;;;;;;14.55;8.68;;;13.70;99.90;;;-144.05;89.19;125687.94;6197735;23;20032;-87
2022/06/27 22:16:55;;;;;;;13.38;8.63;;;13.70;99.90;;;-144.05;88.96;125687.94;6204823;22;20008;-86
2022/06/27 22:19:21;;;;;;;10.50;8.20;;;13.70;99.90;;;-144.05;88.95;125687.94;6219702;23;20461;-88
2022/06/27 22:21:47;;;;;;;12.90;7.90;;;13.70;99.90;;;-144.05;89.14;125687.94;6193794;23;20091;-87
2022/06/27 22:24:13;;;;;;;11.98;8.88;;;13.60;99.90;;;-144.05;89.06;125687.94;6193106;23;20004;-86
2022/06/27 22:26:39;;;;;;;13.85;7.65;;;13.60;99.90;;;-144.05;89.18;125687.94;6194004;23;20346;-87
2022/06/27 22:29:04;;;;;;;13.48;8.20;;;13.60;99.90;;;-144.05;89.21;125687.94;6191592;23;20016;-87
2022/06/27 22:31:30;;;;;;;10.32;8.48;;;13.60;99.90;;;-144.05;88.98;125687.94;6192297;23;20039;-87
2022/06/27 22:33:56;;;;;;;10.82;8.43;;;13.50;99.90;;;-144.05;89.42;125687.94;6218854;23;20339;-86
2022/06/27 22:36:23;;;;;;;14.90;8.40;;;13.50;99.90;;;-144.05;89.61;125687.94;6192373;23;20070;-87
2022/06/27 22:38:49;;;;;;;12.13;7.72;;;13.50;99.90;;;-144.05;89.31;125687.94;6191661;23;20039;-87
2022/06/27 22:41:15;;;;;;;9.80;7.82;;;13.50;99.90;;;-144.05;89.18;125687.94;6218866;23;20004;-90
2022/06/27 22:43:40;;;;;;;13.85;8.52;;;13.40;99.90;;;-144.05;89.03;125687.94;6217859;23;20030;-89
2022/06/27 22:46:06;;;;;;;11.57;7.32;;;13.40;99.90;;;-144.05;89.16;125687.94;6218415;23;20011;-87
2022/06/27 22:48:32;;;;;;;10.60;7.82;;;13.40;99.90;;;-144.05;89.17;125687.94;6218289;23;20036;-87
2022/06/27 22:50:58;;;;;;;9.75;8.32;;;13.30;99.90;;;-144.05;88.95;125687.94;6218248;23;20434;-88
2022/06/27 22:53:24;;;;;;;10.15;7.43;;;13.30;99.90;;;-144.05;89.07;125687.94;6191986;23;20044;-87
2022/06/27 22:55:50;;;;;;;11.27;7.68;;;13.30;99.90;;;-144.05;88.92;125687.94;6218707;23;20032;-87
2022/06/27 22:58:16;;;;;;;8.85;7.32;;;13.30;99.90;;;-144.05;89.03;125687.94;6191828;23;20008;-87
2022/06/27 23:00:42;;;;;;;10.77;7.38;;;13.20;99.90;;;-144.05;88.83;125687.94;6192205;23;20122;-87
2022/06/27 23:03:08;;;;;;;9.38;7.05;;;13.20;99.90;;;-144.05;88.75;125687.94;6218538;23;20020;-85
2022/06/27 23:05:33;;;;;;;9.80;6.93;;;13.20;99.90;;;-144.05;88.87;125687.94;6218558;23;20407;-86
2022/06/27 23:07:59;;;;;;;11.65;7.82;;;13.10;99.90;;;-144.05;88.96;125687.94;6191227;23;20012;-86
2022/06/27 23:10:25;;;;;;;14.15;7.75;;;13.10;99.90;;;-144.05;89.26;125687.94;6218162;23;20011;-87
2022/06/27 23:12:51;;;;;;;10.05;6.65;;;13.10;99.90;;;-144.05;89.12;125687.94;6191802;23;20377;-86
2022/06/27 23:15:17;;;;;;;13.95;7.57;;;13.10;99.90;;;-144.05;89.19;125687.94;6218397;23;20000;-86
2022/06/27 23:17:43;;;;;;;10.23;6.88;;;13.10;99.90;;;-144.05;89.13;125687.94;6190982;23;20039;-88
2022/06/27 23:20:14;;;;;;;10.25;7.40;;;13.10;99.90;;;-144.05;89.01;125687.94;6191677;23;20051;-86
2022/06/27 23:22:40;;;;;;;9.57;7.22;;;13.10;99.90;;;-144.05;89.09;125687.94;6217437;23;20014;-87
2022/06/27 23:25:07;;;;;;;11.32;7.22;;;13.10;99.90;;;-144.05;89.47;125687.94;6192020;23;20116;-87
2022/06/27 23:27:33;;;;;;;10.63;6.97;;;13.10;99.90;;;-144.05;89.09;125687.94;6218970;23;20012;-87
2022/06/27 23:29:59;;;;;;;11.65;7.15;;;13.00;99.90;;;-144.05;89.30;125687.94;6191962;23;20086;-87
2022/06/27 23:32:26;;;;;;;13.23;7.13;;;13.00;99.90;;;-144.05;89.31;125687.94;6192452;23;20012;-86
2022/06/27 23:34:52;;;;;;;11.07;8.70;;;13.00;99.90;;;-144.05;89.39;125687.94;6192873;23;20011;-88
2022/06/27 23:37:18;;;;;;;11.55;7.43;;;13.00;99.90;;;-144.05;89.46;125687.94;6192595;23;20083;-88
2022/06/27 23:39:46;;;;;;;10.85;8.05;;;13.00;99.90;;;-144.05;89.65;125687.94;6193464;23;20012;-87
2022/06/27 23:42:14;;;;;;;12.32;7.65;;;13.00;99.90;;;-144.05;89.79;125687.94;6194521;23;20434;-89
2022/06/27 23:44:42;;;;;;;16.02;8.07;;;13.00;99.90;;;-144.05;89.56;125687.94;6194808;23;20012;-88
2022/06/27 23:47:09;;;;;;;9.23;7.80;;;13.00;99.90;;;-144.05;89.54;125687.94;6221914;23;20040;-86
2022/06/27 23:49:37;;;;;;;10.25;8.30;;;12.90;99.90;;;-144.05;89.81;125687.94;6198715;23;20008;-86
2022/06/27 23:52:04;;;;;;;10.82;7.85;;;12.90;99.90;;;-144.05;89.74;125687.94;6213738;23;20004;-86
2022/06/27 23:54:30;;;;;;;9.98;7.55;;;12.90;99.90;;;-144.05;89.58;125687.94;6213404;23;20040;-87
2022/06/27 23:56:56;;;;;;;14.35;8.00;;;12.80;99.90;;;-144.05;89.61;125687.94;6214687;22;20023;-83
2022/06/27 23:59:25;;;;;;;11.00;7.45;;;12.80;99.90;;;-144.05;89.87;125687.94;6241511;22;20004;-85
